Time;durP1;ratioP1;P1;durP2;ratioP2;P2;SDS_P1;SDS_P2;PMS_P1;PMS_P2;Temp;Humidity;BMP_temperature;BMP_pressure;BME280_temperature;BME280_humidity;BME280_pressure;Samples;Min_cycle;Max_cycle;Signal;HPM_P1;HPM_P2
2023/05/16 00:01:11;;;;;;;;;;;;;;;9.42;100.00;101769.13;10458659;28;19925;-63
2023/05/16 00:06:14;;;;;;;;;;;;;;;9.49;100.00;101781.06;10458692;28;19932;-63
2023/05/16 00:11:16;;;;;;;;;;;;;;;9.55;100.00;101786.97;10458396;28;19925;-64
2023/05/16 00:16:20;;;;;;;;;;;;;;;9.52;100.00;101782.72;10440364;28;19951;-63
2023/05/16 00:21:23;;;;;;;;;;;;;;;9.24;100.00;101795.94;10457896;28;19960;-63
2023/05/16 00:26:25;;;;;;;;;;;;;;;9.47;100.00;101787.28;10457785;28;19928;-63
2023/05/16 00:31:28;;;;;;;;;;;;;;;9.34;100.00;101786.84;10457404;28;19975;-64
2023/05/16 00:36:30;;;;;;;;;;;;;;;9.72;100.00;101788.97;10457254;28;19931;-63
2023/05/16 00:41:33;;;;;;;;;;;;;;;9.58;100.00;101795.56;10457380;28;19925;-64
2023/05/16 00:46:35;;;;;;;;;;;;;;;9.54;100.00;101799.19;10473343;28;19978;-63
2023/05/16 00:51:37;;;;;;;;;;;;;;;9.49;97.99;101788.91;10457138;28;19925;-63
2023/05/16 00:56:40;;;;;;;;;;;;;;;9.42;99.86;101789.19;10455875;28;19925;-64
2023/05/16 01:01:43;;;;;;;;;;;;;;;9.29;98.73;101791.41;10457464;28;19928;-63
2023/05/16 01:06:46;;;;;;;;;;;;;;;9.22;98.15;101797.75;10472729;28;19990;-63
2023/05/16 01:11:52;;;;;;;;;;;;;;;9.02;98.88;101804.53;10456464;28;19929;-63
2023/05/16 01:17:13;;;;;;;;;;;;;;;9.23;99.93;101809.91;10455754;28;19925;-63
2023/05/16 01:22:36;;;;;;;;;;;;;;;8.95;98.61;101812.66;10456446;28;19928;-63
2023/05/16 01:27:38;;;;;;;;;;;;;;;8.79;98.43;101807.06;10445439;28;19935;-64
2023/05/16 01:32:41;;;;;;;;;;;;;;;8.85;99.84;101804.28;10472280;28;19934;-63
2023/05/16 01:38:12;;;;;;;;;;;;;;;8.86;96.44;101811.19;10455355;28;19925;-64
2023/05/16 01:43:16;;;;;;;;;;;;;;;8.71;97.85;101808.19;10435731;28;19936;-63
2023/05/16 01:48:21;;;;;;;;;;;;;;;8.78;97.97;101810.63;10472033;28;19982;-63
2023/05/16 01:53:25;;;;;;;;;;;;;;;8.77;98.21;101811.50;10470312;28;20368;-63
2023/05/16 01:58:28;;;;;;;;;;;;;;;8.62;97.57;101812.88;10470697;28;20380;-63
2023/05/16 02:03:30;;;;;;;;;;;;;;;8.50;99.68;101814.97;10456945;28;19931;-63
2023/05/16 02:08:33;;;;;;;;;;;;;;;8.52;98.91;101810.56;10462973;28;19931;-63
2023/05/16 02:13:35;;;;;;;;;;;;;;;8.78;97.48;101821.06;10463344;28;19931;-63
2023/05/16 02:18:37;;;;;;;;;;;;;;;8.82;97.59;101820.88;10463300;28;19925;-63
2023/05/16 02:23:40;;;;;;;;;;;;;;;8.67;97.23;101829.22;10461709;28;20013;-64
2023/05/16 02:28:42;;;;;;;;;;;;;;;8.70;98.01;101821.31;10462388;28;19928;-64
2023/05/16 02:33:44;;;;;;;;;;;;;;;8.56;98.39;101840.03;10462141;28;19925;-63
2023/05/16 02:38:47;;;;;;;;;;;;;;;8.36;100.00;101835.41;10461993;28;19932;-63
2023/05/16 02:43:49;;;;;;;;;;;;;;;8.36;100.00;101849.31;10462115;28;20430;-63
2023/05/16 02:48:51;;;;;;;;;;;;;;;8.03;100.00;101840.75;10460733;28;19971;-63
2023/05/16 02:53:55;;;;;;;;;;;;;;;8.23;100.00;101844.53;10462093;28;19924;-63
2023/05/16 02:58:58;;;;;;;;;;;;;;;8.27;100.00;101857.44;10443010;28;19984;-63
2023/05/16 03:04:01;;;;;;;;;;;;;;;8.32;100.00;101860.75;10460474;28;19979;-63
2023/05/16 03:09:03;;;;;;;;;;;;;;;8.30;100.00;101864.28;10461443;28;19925;-63
2023/05/16 03:14:07;;;;;;;;;;;;;;;8.25;100.00;101867.03;10459935;28;20280;-63
2023/05/16 03:19:09;;;;;;;;;;;;;;;8.21;100.00;101875.03;10418913;28;19932;-64
2023/05/16 03:24:12;;;;;;;;;;;;;;;8.47;100.00;101875.13;10401322;28;20391;-63
2023/05/16 03:29:14;;;;;;;;;;;;;;;8.67;100.00;101869.22;10448127;28;19929;-63
2023/05/16 03:34:16;;;;;;;;;;;;;;;8.63;100.00;101872.84;10460052;28;20283;-63
2023/05/16 03:39:18;;;;;;;;;;;;;;;8.98;100.00;101877.81;10507857;22;19974;-67
2023/05/16 03:44:21;;;;;;;;;;;;;;;8.97;100.00;101883.97;10542104;28;19924;-67
2023/05/16 03:49:27;;;;;;;;;;;;;;;9.07;100.00;101886.22;10584271;28;20415;-67
2023/05/16 03:54:29;;;;;;;;;;;;;;;9.06;100.00;101899.31;10585344;28;19980;-67
2023/05/16 03:59:31;;;;;;;;;;;;;;;9.27;100.00;101895.97;10582316;28;20385;-67
2023/05/16 04:04:33;;;;;;;;;;;;;;;8.89;100.00;101900.75;10581832;28;19924;-67
2023/05/16 04:09:36;;;;;;;;;;;;;;;9.05;100.00;101903.69;10583936;28;20386;-67
2023/05/16 04:14:38;;;;;;;;;;;;;;;9.02;100.00;101908.19;10576977;28;19977;-67
2023/05/16 04:19:40;;;;;;;;;;;;;;;8.90;100.00;101914.66;10583419;28;20259;-67
2023/05/16 04:24:42;;;;;;;;;;;;;;;8.91;100.00;101912.00;10583314;28;19931;-67
2023/05/16 04:29:44;;;;;;;;;;;;;;;9.23;100.00;101920.53;10580730;28;20427;-67
2023/05/16 04:34:48;;;;;;;;;;;;;;;8.93;100.00;101919.78;10580899;28;19927;-67
2023/05/16 04:39:53;;;;;;;;;;;;;;;9.37;100.00;101929.66;10582849;28;19923;-67
2023/05/16 04:44:55;;;;;;;;;;;;;;;9.11;100.00;101932.25;10582705;28;20319;-66
2023/05/16 04:49:58;;;;;;;;;;;;;;;9.07;100.00;101935.84;10562831;28;19977;-67
2023/05/16 04:55:00;;;;;;;;;;;;;;;9.24;100.00;101944.88;10582433;28;20279;-66
2023/05/16 05:00:06;;;;;;;;;;;;;;;9.46;100.00;101943.28;10580304;28;19924;-67
2023/05/16 05:05:09;;;;;;;;;;;;;;;8.98;100.00;101958.78;10581835;28;19924;-67
2023/05/16 05:10:11;;;;;;;;;;;;;;;9.03;100.00;101946.47;10555370;28;19924;-67
2023/05/16 05:15:13;;;;;;;;;;;;;;;9.29;100.00;101964.72;10556003;28;19924;-67
2023/05/16 05:20:16;;;;;;;;;;;;;;;9.09;100.00;101962.78;10582502;28;19931;-66
2023/05/16 05:25:18;;;;;;;;;;;;;;;9.05;100.00;101963.78;10582355;28;19931;-67
2023/05/16 05:30:20;;;;;;;;;;;;;;;9.08;100.00;101974.13;10574607;28;19973;-67
2023/05/16 05:35:22;;;;;;;;;;;;;;;8.91;100.00;101979.91;10582333;28;19924;-67
2023/05/16 05:40:25;;;;;;;;;;;;;;;9.07;100.00;101982.03;10585712;28;19928;-67
2023/05/16 05:45:27;;;;;;;;;;;;;;;9.11;100.00;101987.09;10582678;28;19977;-67
2023/05/16 05:50:29;;;;;;;;;;;;;;;9.65;100.00;101987.09;10562748;28;20405;-67
2023/05/16 05:55:31;;;;;;;;;;;;;;;9.71;98.21;101986.84;10529743;28;19924;-67
2023/05/16 06:00:34;;;;;;;;;;;;;;;10.34;93.80;101989.00;10547464;28;19969;-67
2023/05/16 06:05:36;;;;;;;;;;;;;;;10.07;91.96;101990.84;10545849;28;20420;-67
2023/05/16 06:10:38;;;;;;;;;;;;;;;10.22;94.04;101991.16;10545546;28;20382;-67
2023/05/16 06:15:41;;;;;;;;;;;;;;;10.02;91.86;101993.63;10547072;28;19981;-67
2023/05/16 06:20:43;;;;;;;;;;;;;;;10.44;93.45;101998.22;10545073;28;20367;-67
2023/05/16 06:25:45;;;;;;;;;;;;;;;9.87;91.78;102005.50;10549746;28;20321;-66
2023/05/16 06:30:50;;;;;;;;;;;;;;;9.95;92.14;102005.22;10566238;28;19924;-66
2023/05/16 06:35:52;;;;;;;;;;;;;;;10.21;90.82;102005.13;10588458;28;19928;-66
2023/05/16 06:40:54;;;;;;;;;;;;;;;10.26;90.91;102015.44;10585101;28;19977;-67
2023/05/16 06:45:57;;;;;;;;;;;;;;;10.30;90.87;102011.78;10587949;28;19924;-66
2023/05/16 06:50:59;;;;;;;;;;;;;;;10.77;89.09;102001.31;10569892;28;19928;-66
2023/05/16 06:56:01;;;;;;;;;;;;;;;10.92;87.15;102004.25;10587430;28;19924;-66
2023/05/16 07:01:04;;;;;;;;;;;;;;;11.13;86.56;101999.94;10586478;28;20370;-66
2023/05/16 07:06:06;;;;;;;;;;;;;;;11.59;83.67;102008.50;10568991;28;20363;-66
2023/05/16 07:11:10;;;;;;;;;;;;;;;11.49;83.10;102013.25;10563512;28;20011;-66
2023/05/16 07:16:12;;;;;;;;;;;;;;;11.65;83.11;102015.22;10544453;28;19938;-70
2023/05/16 07:21:14;;;;;;;;;;;;;;;11.88;80.81;102024.75;10525582;28;20408;-70
2023/05/16 07:26:17;;;;;;;;;;;;;;;12.66;76.90;102012.56;10549242;28;20263;-70
2023/05/16 07:31:19;;;;;;;;;;;;;;;11.74;77.28;102014.03;10586982;28;19923;-70
2023/05/16 07:36:21;;;;;;;;;;;;;;;12.19;76.33;102019.06;10586475;28;19959;-70
2023/05/16 07:41:24;;;;;;;;;;;;;;;12.43;76.14;102019.69;10531416;28;19942;-70
2023/05/16 07:46:26;;;;;;;;;;;;;;;11.76;75.52;102017.41;10572926;28;19951;-70
2023/05/16 07:51:29;;;;;;;;;;;;;;;11.65;73.47;102013.50;10543588;28;19924;-71
2023/05/16 07:56:31;;;;;;;;;;;;;;;13.77;71.09;102020.31;10534190;28;20379;-67
2023/05/16 08:01:34;;;;;;;;;;;;;;;14.72;66.92;102013.56;10542082;28;19985;-67
2023/05/16 08:06:36;;;;;;;;;;;;;;;15.56;65.18;102016.63;10541827;28;20390;-67
2023/05/16 08:11:38;;;;;;;;;;;;;;;13.80;67.03;102025.41;10542378;28;19924;-66
2023/05/16 08:16:41;;;;;;;;;;;;;;;13.28;64.30;102020.97;10542140;28;20015;-66
2023/05/16 08:21:43;;;;;;;;;;;;;;;13.67;68.05;102017.28;10542012;28;20274;-66
2023/05/16 08:26:45;;;;;;;;;;;;;;;15.28;64.34;102008.63;10524303;28;19924;-66
2023/05/16 08:31:48;;;;;;;;;;;;;;;13.80;64.93;102021.91;10540807;28;19924;-66
2023/05/16 08:36:50;;;;;;;;;;;;;;;13.65;67.21;102034.06;10522772;28;19928;-66
2023/05/16 08:41:53;;;;;;;;;;;;;;;14.88;64.34;102021.44;10540285;28;20389;-66
2023/05/16 08:46:55;;;;;;;;;;;;;;;14.71;63.72;102011.84;10540578;28;19924;-66
2023/05/16 08:51:58;;;;;;;;;;;;;;;15.80;62.24;102013.47;10523099;28;19924;-66
2023/05/16 08:57:00;;;;;;;;;;;;;;;15.24;60.89;102023.78;10522507;28;20286;-65
2023/05/16 09:02:03;;;;;;;;;;;;;;;13.76;64.31;102037.03;10522706;28;19925;-66
2023/05/16 09:07:05;;;;;;;;;;;;;;;14.33;66.18;102031.41;10522343;28;19930;-66
2023/05/16 09:12:08;;;;;;;;;;;;;;;13.84;66.08;102045.38;10539792;28;19931;-66
2023/05/16 09:17:11;;;;;;;;;;;;;;;14.28;61.72;102038.72;10547999;28;19934;-66
2023/05/16 09:22:14;;;;;;;;;;;;;;;14.90;56.53;102022.22;10548981;28;19981;-66
2023/05/16 09:27:16;;;;;;;;;;;;;;;14.77;60.15;102035.22;10548312;28;19931;-66
2023/05/16 09:32:19;;;;;;;;;;;;;;;15.15;61.14;102033.06;10531841;28;20015;-66
2023/05/16 09:37:21;;;;;;;;;;;;;;;15.60;58.49;102025.19;10549333;28;19924;-66
2023/05/16 09:42:24;;;;;;;;;;;;;;;16.12;57.12;102034.44;10547766;28;20274;-66
2023/05/16 09:47:26;;;;;;;;;;;;;;;16.42;56.59;102023.78;10548086;28;19931;-66
2023/05/16 09:52:29;;;;;;;;;;;;;;;17.64;57.44;102018.56;10547187;28;20440;-66
2023/05/16 09:57:31;;;;;;;;;;;;;;;18.06;54.99;102021.03;10547592;28;20010;-66
2023/05/16 10:02:34;;;;;;;;;;;;;;;15.61;57.20;102025.13;10547386;28;19969;-66
2023/05/16 10:07:37;;;;;;;;;;;;;;;16.46;57.04;102017.38;10547246;28;19987;-66
2023/05/16 10:12:39;;;;;;;;;;;;;;;15.61;59.60;102025.13;10537157;28;20333;-63
2023/05/16 10:17:42;;;;;;;;;;;;;;;15.69;59.56;102024.66;10571167;28;20054;-63
2023/05/16 10:22:44;;;;;;;;;;;;;;;15.96;57.27;102026.63;10545240;28;20448;-63
2023/05/16 10:27:46;;;;;;;;;;;;;;;18.25;55.30;102018.78;10546124;28;19924;-63
2023/05/16 10:32:49;;;;;;;;;;;;;;;20.21;50.66;102004.25;10544260;28;19924;-64
2023/05/16 10:37:51;;;;;;;;;;;;;;;18.54;48.66;101999.94;10544751;28;19924;-64
2023/05/16 10:42:57;;;;;;;;;;;;;;;18.87;48.56;101998.47;10545275;28;19924;-66
2023/05/16 10:48:00;;;;;;;;;;;;;;;16.30;51.43;102009.53;10526918;28;19951;-63
2023/05/16 10:53:22;;;;;;;;;;;;;;;15.19;54.58;102005.56;10527468;28;19978;-63
2023/05/16 10:58:24;;;;;;;;;;;;;;;15.09;55.27;102014.13;10544543;28;19924;-63
2023/05/16 11:03:27;;;;;;;;;;;;;;;19.20;50.47;101992.47;10549234;28;20336;-64
2023/05/16 11:08:30;;;;;;;;;;;;;;;17.96;52.13;101991.69;10587126;28;19985;-64
2023/05/16 11:13:32;;;;;;;;;;;;;;;17.81;52.45;101999.69;10568878;28;19930;-64
2023/05/16 11:18:34;;;;;;;;;;;;;;;19.47;50.47;102000.16;10586003;28;20378;-64
2023/05/16 11:23:36;;;;;;;;;;;;;;;18.49;48.77;101996.78;10567659;28;19949;-64
2023/05/16 11:28:39;;;;;;;;;;;;;;;17.70;45.38;101996.09;10586365;28;19931;-63
2023/05/16 11:33:41;;;;;;;;;;;;;;;19.21;45.08;101986.19;10567921;28;19934;-63
2023/05/16 11:38:43;;;;;;;;;;;;;;;16.62;50.38;102009.31;10566749;28;20362;-64
2023/05/16 11:43:45;;;;;;;;;;;;;;;16.69;50.93;102007.13;10585107;28;19924;-63
2023/05/16 11:48:48;;;;;;;;;;;;;;;19.99;45.66;102007.75;10584798;28;19924;-64
2023/05/16 11:53:50;;;;;;;;;;;;;;;18.38;45.78;101997.56;10584623;28;19946;-64
2023/05/16 11:58:53;;;;;;;;;;;;;;;18.85;46.46;101992.44;10584385;28;19923;-63
2023/05/16 12:03:56;;;;;;;;;;;;;;;18.50;48.81;102003.78;10585095;28;19931;-64
2023/05/16 12:09:02;;;;;;;;;;;;;;;17.01;51.35;102020.97;10584097;28;19924;-63
2023/05/16 12:14:05;;;;;;;;;;;;;;;17.85;49.75;102025.97;10583703;28;19924;-64
2023/05/16 12:19:07;;;;;;;;;;;;;;;17.23;48.88;102032.75;10584420;28;19923;-64
2023/05/16 12:24:11;;;;;;;;;;;;;;;20.17;47.61;102022.25;10583373;28;20289;-64
2023/05/16 12:29:13;;;;;;;;;;;;;;;18.24;47.14;102030.34;10565923;28;19934;-64
2023/05/16 12:34:20;;;;;;;;;;;;;;;17.82;50.01;102037.66;10583670;28;19924;-64
2023/05/16 12:39:22;;;;;;;;;;;;;;;17.30;50.16;102033.19;10582718;28;20034;-64
2023/05/16 12:44:28;;;;;;;;;;;;;;;16.92;49.73;102032.13;10582876;28;20018;-63
2023/05/16 12:49:32;;;;;;;;;;;;;;;16.32;49.62;102042.03;10584115;28;19927;-63
2023/05/16 12:54:34;;;;;;;;;;;;;;;17.36;49.03;102046.88;10583157;28;19924;-64
2023/05/16 12:59:36;;;;;;;;;;;;;;;15.97;50.11;102039.75;10583004;28;19936;-63
2023/05/16 13:04:38;;;;;;;;;;;;;;;16.26;51.26;102049.47;10582937;28;19930;-64
2023/05/16 13:09:40;;;;;;;;;;;;;;;15.72;53.25;102061.47;10582106;28;19955;-63
2023/05/16 13:14:43;;;;;;;;;;;;;;;15.79;52.49;102070.75;10581945;28;20263;-64
2023/05/16 13:19:46;;;;;;;;;;;;;;;15.89;52.76;102068.41;10581871;28;20309;-63
2023/05/16 13:24:50;;;;;;;;;;;;;;;15.81;53.67;102068.00;10581956;28;20332;-64
2023/05/16 13:29:52;;;;;;;;;;;;;;;15.10;55.27;102065.94;10581705;28;19930;-63
2023/05/16 13:34:54;;;;;;;;;;;;;;;15.24;56.15;102081.81;10573280;28;20278;-63
2023/05/16 13:39:57;;;;;;;;;;;;;;;15.12;57.02;102086.00;10563542;28;19928;-63
2023/05/16 13:44:59;;;;;;;;;;;;;;;15.23;56.54;102085.38;10582131;28;20027;-63
2023/05/16 13:50:05;;;;;;;;;;;;;;;16.99;55.45;102082.84;10563347;28;20412;-64
2023/05/16 13:55:07;;;;;;;;;;;;;;;17.19;53.79;102081.56;10581349;28;20357;-64
2023/05/16 14:00:12;;;;;;;;;;;;;;;15.79;55.20;102086.59;10583340;28;20281;-63
2023/05/16 14:05:17;;;;;;;;;;;;;;;15.00;56.44;102082.25;10589124;28;19923;-63
2023/05/16 14:10:19;;;;;;;;;;;;;;;14.74;56.68;102086.31;10589561;28;19924;-63
2023/05/16 14:15:21;;;;;;;;;;;;;;;14.70;58.16;102091.88;10588584;28;19928;-64
2023/05/16 14:20:24;;;;;;;;;;;;;;;15.20;58.46;102082.94;10589066;28;19930;-63
2023/05/16 14:25:26;;;;;;;;;;;;;;;15.36;57.73;102091.66;10588923;28;19923;-64
2023/05/16 14:30:29;;;;;;;;;;;;;;;14.82;60.20;102089.41;10588066;28;19931;-63
2023/05/16 14:35:31;;;;;;;;;;;;;;;14.92;59.16;102091.53;10587874;28;20320;-64
2023/05/16 14:40:34;;;;;;;;;;;;;;;15.69;59.75;102093.31;10587708;28;19931;-63
2023/05/16 14:45:36;;;;;;;;;;;;;;;15.19;60.31;102090.00;10588094;28;19930;-64
2023/05/16 14:50:38;;;;;;;;;;;;;;;15.10;61.20;102093.16;10569278;28;20389;-64
2023/05/16 14:55:41;;;;;;;;;;;;;;;15.28;60.98;102091.28;10569711;28;20010;-63
2023/05/16 15:00:43;;;;;;;;;;;;;;;14.88;61.20;102104.06;10587453;28;19924;-64
2023/05/16 15:05:45;;;;;;;;;;;;;;;14.92;62.43;102099.47;10586592;28;20382;-63
2023/05/16 15:10:48;;;;;;;;;;;;;;;14.78;62.69;102106.34;10585528;28;20286;-64
2023/05/16 15:15:50;;;;;;;;;;;;;;;13.78;63.40;102106.22;10583539;28;20347;-63
2023/05/16 15:20:52;;;;;;;;;;;;;;;14.18;63.93;102100.72;10569868;28;19924;-63
2023/05/16 15:25:55;;;;;;;;;;;;;;;14.24;63.35;102100.38;10543989;28;19924;-63
2023/05/16 15:30:57;;;;;;;;;;;;;;;13.85;65.45;102110.28;10525500;28;19931;-63
2023/05/16 15:36:00;;;;;;;;;;;;;;;14.25;66.37;102117.91;10540127;28;19971;-63
2023/05/16 15:41:04;;;;;;;;;;;;;;;14.01;65.64;102112.97;10542565;28;20034;-64
2023/05/16 15:46:23;;;;;;;;;;;;;;;14.12;65.55;102117.66;10542761;28;19924;-63
2023/05/16 15:51:25;;;;;;;;;;;;;;;14.24;65.71;102122.31;10540059;28;19924;-63
2023/05/16 15:56:30;;;;;;;;;;;;;;;14.06;65.57;102129.38;10544936;22;20444;-67
2023/05/16 16:01:32;;;;;;;;;;;;;;;14.06;64.58;102128.53;10540348;28;19932;-67
2023/05/16 16:06:34;;;;;;;;;;;;;;;13.94;65.41;102125.59;10537473;28;20006;-68
2023/05/16 16:11:36;;;;;;;;;;;;;;;14.16;65.54;102132.41;10539426;28;19924;-67
2023/05/16 16:16:39;;;;;;;;;;;;;;;14.28;66.46;102129.13;10540402;28;20006;-67
2023/05/16 16:21:42;;;;;;;;;;;;;;;14.00;66.06;102126.22;10539788;28;20366;-67
2023/05/16 16:26:45;;;;;;;;;;;;;;;13.88;67.07;102131.16;10540042;28;19924;-67
2023/05/16 16:31:47;;;;;;;;;;;;;;;13.84;67.49;102129.63;10537465;28;20014;-67
2023/05/16 16:36:49;;;;;;;;;;;;;;;13.68;65.24;102128.66;10539950;28;19924;-67
2023/05/16 16:41:52;;;;;;;;;;;;;;;13.70;64.92;102135.56;10539536;28;19930;-67
2023/05/16 16:46:54;;;;;;;;;;;;;;;14.09;64.94;102141.56;10539693;28;19999;-67
2023/05/16 16:51:56;;;;;;;;;;;;;;;13.72;65.39;102141.59;10474163;28;1832617;-67
2023/05/16 16:56:59;;;;;;;;;;;;;;;14.02;65.11;102137.50;10540430;28;20007;-67
2023/05/16 17:02:01;;;;;;;;;;;;;;;13.57;64.77;102131.84;10540098;28;20014;-67
2023/05/16 17:07:04;;;;;;;;;;;;;;;13.45;63.92;102135.91;10540686;28;20046;-67
2023/05/16 17:12:13;;;;;;;;;;;;;;;13.50;63.81;102143.56;10522087;28;20371;-67
2023/05/16 17:17:16;;;;;;;;;;;;;;;13.68;63.79;102145.31;10539982;28;19924;-67
2023/05/16 17:22:20;;;;;;;;;;;;;;;13.37;63.70;102149.44;10540324;28;19930;-67
2023/05/16 17:27:22;;;;;;;;;;;;;;;13.70;63.40;102151.38;10540302;28;19928;-67
2023/05/16 17:32:24;;;;;;;;;;;;;;;13.52;64.55;102170.69;10540069;28;19930;-67
2023/05/16 17:37:27;;;;;;;;;;;;;;;13.72;64.37;102174.97;10546157;28;19924;-67
2023/05/16 17:42:29;;;;;;;;;;;;;;;13.07;66.30;102183.25;10548244;28;19924;-67
2023/05/16 17:47:32;;;;;;;;;;;;;;;12.75;70.51;102184.69;10548254;28;19924;-67
2023/05/16 17:52:34;;;;;;;;;;;;;;;12.66;70.73;102185.97;10545919;28;20366;-67
2023/05/16 17:57:37;;;;;;;;;;;;;;;12.51;72.81;102183.97;10547236;28;19946;-67
2023/05/16 18:02:39;;;;;;;;;;;;;;;12.23;72.68;102182.56;10544447;28;20294;-67
2023/05/16 18:07:42;;;;;;;;;;;;;;;12.36;72.75;102186.38;10545896;28;20117;-67
2023/05/16 18:12:45;;;;;;;;;;;;;;;12.21;72.91;102194.91;10528576;28;19924;-67
2023/05/16 18:17:47;;;;;;;;;;;;;;;12.26;73.02;102201.66;10545570;28;19931;-67
2023/05/16 18:22:50;;;;;;;;;;;;;;;12.14;71.41;102207.44;10546658;28;19974;-67
2023/05/16 18:27:53;;;;;;;;;;;;;;;12.28;71.01;102214.72;10545510;28;19939;-67
2023/05/16 18:32:55;;;;;;;;;;;;;;;12.25;70.75;102199.97;10539603;28;19931;-67
2023/05/16 18:37:57;;;;;;;;;;;;;;;12.23;70.87;102216.69;10587687;28;19924;-68
2023/05/16 18:43:00;;;;;;;;;;;;;;;12.29;71.47;102226.06;10547933;28;19931;-67
2023/05/16 18:48:02;;;;;;;;;;;;;;;12.35;74.88;102241.59;10544950;28;19928;-67
2023/05/16 18:53:05;;;;;;;;;;;;;;;11.41;83.70;102237.41;10545215;28;19930;-66
2023/05/16 18:58:07;;;;;;;;;;;;;;;11.34;85.13;102239.41;10544645;28;19924;-67
2023/05/16 19:03:11;;;;;;;;;;;;;;;11.08;83.78;102235.16;10544482;28;19924;-67
2023/05/16 19:08:14;;;;;;;;;;;;;;;11.44;86.22;102235.50;10543736;28;20442;-68
2023/05/16 19:13:16;;;;;;;;;;;;;;;11.46;88.89;102240.72;10526932;28;19923;-67
2023/05/16 19:18:19;;;;;;;;;;;;;;;11.46;91.34;102240.72;10546081;28;19924;-68
2023/05/16 19:23:21;;;;;;;;;;;;;;;11.26;96.90;102258.06;10566609;28;19931;-67
2023/05/16 19:28:23;;;;;;;;;;;;;;;11.23;98.59;102255.53;10543460;28;20438;-68
2023/05/16 19:33:26;;;;;;;;;;;;;;;11.19;93.85;102259.19;10544102;28;19971;-67
2023/05/16 19:38:28;;;;;;;;;;;;;;;11.24;94.12;102262.47;10543648;28;19924;-67
2023/05/16 19:43:30;;;;;;;;;;;;;;;11.30;95.02;102257.03;10562274;28;19923;-67
2023/05/16 19:48:32;;;;;;;;;;;;;;;11.18;94.17;102278.47;10577497;28;19935;-68
2023/05/16 19:53:35;;;;;;;;;;;;;;;11.05;95.96;102275.41;10551472;28;19950;-67
2023/05/16 19:58:37;;;;;;;;;;;;;;;10.69;94.89;102274.94;10577195;28;19923;-67
2023/05/16 20:03:40;;;;;;;;;;;;;;;10.84;96.01;102274.38;10546253;28;20382;-67
2023/05/16 20:08:42;;;;;;;;;;;;;;;11.12;93.01;102268.19;10560666;28;20022;-67
2023/05/16 20:13:44;;;;;;;;;;;;;;;10.87;91.31;102273.44;10539466;28;19931;-68
2023/05/16 20:18:47;;;;;;;;;;;;;;;11.38;88.63;102264.63;10532224;28;19931;-68
2023/05/16 20:23:49;;;;;;;;;;;;;;;11.09;89.66;102268.28;10541215;28;20283;-68
2023/05/16 20:28:52;;;;;;;;;;;;;;;11.14;86.30;102267.19;10533547;28;19924;-68
2023/05/16 20:33:54;;;;;;;;;;;;;;;10.91;86.62;102264.56;10528367;28;19947;-68
2023/05/16 20:38:56;;;;;;;;;;;;;;;10.85;85.89;102280.50;10519278;28;19965;-68
2023/05/16 20:43:59;;;;;;;;;;;;;;;10.68;86.72;102288.94;10581016;28;19931;-68
2023/05/16 20:49:01;;;;;;;;;;;;;;;10.31;89.61;102282.28;10561222;28;19924;-67
2023/05/16 20:54:03;;;;;;;;;;;;;;;10.23;88.81;102290.38;10577931;28;20440;-68
2023/05/16 20:59:05;;;;;;;;;;;;;;;9.92;92.96;102296.59;10568216;28;19932;-68
2023/05/16 21:04:08;;;;;;;;;;;;;;;9.72;96.44;102297.19;10579827;28;19930;-68
2023/05/16 21:09:10;;;;;;;;;;;;;;;9.57;99.97;102301.09;10581158;28;20272;-68
2023/05/16 21:14:12;;;;;;;;;;;;;;;9.62;100.00;102307.06;10581888;28;20363;-68
2023/05/16 21:19:14;;;;;;;;;;;;;;;9.61;99.22;102309.72;10581110;28;19930;-68
2023/05/16 21:24:17;;;;;;;;;;;;;;;9.57;99.42;102306.34;10582497;28;19924;-68
2023/05/16 21:29:19;;;;;;;;;;;;;;;9.90;98.30;102313.22;10580589;28;19978;-68
2023/05/16 21:34:21;;;;;;;;;;;;;;;9.54;100.00;102322.09;10564322;28;19930;-68
2023/05/16 21:39:23;;;;;;;;;;;;;;;9.77;100.00;102313.59;10581742;28;19927;-68
2023/05/16 21:44:26;;;;;;;;;;;;;;;9.53;100.00;102317.78;10579883;28;19927;-68
2023/05/16 21:49:28;;;;;;;;;;;;;;;9.63;100.00;102324.47;10582149;28;19928;-68
2023/05/16 21:54:30;;;;;;;;;;;;;;;9.97;98.76;102317.34;10579631;28;20366;-68
2023/05/16 21:59:32;;;;;;;;;;;;;;;9.57;100.00;102326.41;10581232;28;19924;-68
2023/05/16 22:04:35;;;;;;;;;;;;;;;9.65;100.00;102340.13;10574804;28;19930;-68
2023/05/16 22:09:37;;;;;;;;;;;;;;;9.66;100.00;102331.34;10581269;28;20015;-68
2023/05/16 22:14:39;;;;;;;;;;;;;;;9.49;100.00;102343.16;10563569;28;19931;-68
2023/05/16 22:19:41;;;;;;;;;;;;;;;9.64;100.00;102343.63;10579364;28;19946;-68
2023/05/16 22:24:44;;;;;;;;;;;;;;;9.40;100.00;102345.19;10568946;28;19928;-68
2023/05/16 22:29:46;;;;;;;;;;;;;;;9.48;100.00;102340.56;10588825;28;19924;-68
2023/05/16 22:34:48;;;;;;;;;;;;;;;9.34;100.00;102350.56;10588040;28;20397;-68
2023/05/16 22:39:52;;;;;;;;;;;;;;;9.25;100.00;102344.69;10586181;28;19924;-68
2023/05/16 22:44:54;;;;;;;;;;;;;;;9.26;100.00;102337.69;10585536;28;20382;-68
2023/05/16 22:49:56;;;;;;;;;;;;;;;9.29;100.00;102337.63;10588080;28;19930;-68
2023/05/16 22:55:00;;;;;;;;;;;;;;;9.16;100.00;102350.16;10569298;28;20010;-68
2023/05/16 23:00:03;;;;;;;;;;;;;;;9.21;100.00;102350.91;10584608;28;19979;-68
2023/05/16 23:05:06;;;;;;;;;;;;;;;9.32;100.00;102347.16;10562519;28;19931;-68
2023/05/16 23:10:08;;;;;;;;;;;;;;;9.34;100.00;102346.19;10585706;28;19924;-68
2023/05/16 23:15:10;;;;;;;;;;;;;;;9.08;100.00;102350.38;10568964;28;19924;-68
2023/05/16 23:20:13;;;;;;;;;;;;;;;9.09;100.00;102349.47;10584762;28;19928;-68
2023/05/16 23:25:15;;;;;;;;;;;;;;;9.39;100.00;102344.31;10586607;28;19930;-68
2023/05/16 23:30:17;;;;;;;;;;;;;;;9.09;100.00;102353.81;10586516;28;19930;-68
2023/05/16 23:35:20;;;;;;;;;;;;;;;9.07;100.00;102353.03;10579410;27;19930;-68
2023/05/16 23:40:22;;;;;;;;;;;;;;;9.10;100.00;102347.72;10583209;28;19927;-68
2023/05/16 23:45:24;;;;;;;;;;;;;;;9.01;100.00;102359.28;10585714;28;19934;-68
2023/05/16 23:50:26;;;;;;;;;;;;;;;8.99;100.00;102353.22;10585180;28;20366;-68
2023/05/16 23:55:29;;;;;;;;;;;;;;;9.17;100.00;102356.25;10546432;28;19931;-68
